Time;durP1;ratioP1;P1;durP2;ratioP2;P2;SDS_P1;SDS_P2;PMS_P1;PMS_P2;Temp;Humidity;BMP_temperature;BMP_pressure;BME280_temperature;BME280_humidity;BME280_pressure;Samples;Min_cycle;Max_cycle;Signal;HPM_P1;HPM_P2
2022/12/13 00:02:16;;;;;;;68.15;47.33;;;20.10;87.30;;;;;;1877743;75;21073;-85
2022/12/13 00:04:47;;;;;;;58.02;40.10;;;20.10;87.20;;;;;;1882976;75;21138;-85
2022/12/13 00:07:18;;;;;;;60.20;41.53;;;20.10;87.50;;;;;;1885283;75;21093;-85
2022/12/13 00:09:48;;;;;;;53.63;34.25;;;20.10;87.60;;;;;;1882022;74;21099;-85
2022/12/13 00:12:19;;;;;;;44.20;31.17;;;20.10;87.50;;;;;;1879802;75;21198;-87
2022/12/13 00:14:50;;;;;;;46.15;32.13;;;20.10;87.20;;;;;;1870113;76;21239;-87
2022/12/13 00:17:21;;;;;;;39.88;29.57;;;20.20;87.40;;;;;;1834924;78;21140;-84
2022/12/13 00:19:52;;;;;;;43.80;30.77;;;20.20;87.10;;;;;;1799211;79;21149;-84
2022/12/13 00:22:23;;;;;;;39.00;29.65;;;20.30;86.70;;;;;;1882966;75;21127;-84
2022/12/13 00:24:55;;;;;;;47.50;28.75;;;20.30;86.40;;;;;;1874387;76;21139;-86
2022/12/13 00:27:26;;;;;;;52.35;36.10;;;20.30;85.80;;;;;;1800921;79;21082;-85
2022/12/13 00:29:57;;;;;;;45.00;32.63;;;20.30;85.70;;;;;;1752583;81;21632;-86
2022/12/13 00:32:28;;;;;;;45.05;30.62;;;20.30;85.30;;;;;;1778363;79;21148;-86
2022/12/13 00:35:05;;;;;;;47.30;33.87;;;20.30;85.00;;;;;;1840685;77;21214;-86
2022/12/13 00:37:36;;;;;;;46.85;31.40;;;20.40;85.20;;;;;;1841147;77;21190;-85
2022/12/13 00:40:08;;;;;;;46.85;31.12;;;20.40;84.70;;;;;;1843142;77;21676;-86
2022/12/13 00:42:39;;;;;;;44.25;31.17;;;20.40;84.20;;;;;;1839618;78;21148;-86
2022/12/13 00:45:11;;;;;;;39.25;28.80;;;20.40;84.00;;;;;;1844908;78;21209;-85
2022/12/13 00:47:42;;;;;;;39.98;29.00;;;20.40;83.90;;;;;;1807141;78;21101;-85
2022/12/13 00:50:17;;;;;;;48.98;33.15;;;20.40;83.90;;;;;;1842490;77;21072;-85
2022/12/13 00:52:45;;;;;;;38.08;27.48;;;20.50;83.80;;;;;;1841354;77;21140;-85
2022/12/13 00:55:15;;;;;;;41.68;28.10;;;20.50;83.20;;;;;;1819430;78;21706;-84
2022/12/13 00:57:46;;;;;;;47.45;29.40;;;20.50;82.40;;;;;;1814081;78;21525;-85
2022/12/13 01:00:18;;;;;;;44.18;29.85;;;20.60;82.10;;;;;;1847387;77;21159;-84
2022/12/13 01:02:49;;;;;;;41.48;29.40;;;20.60;82.10;;;;;;1840915;77;21087;-85
2022/12/13 01:05:20;;;;;;;47.78;29.32;;;20.60;82.20;;;;;;1844350;76;21178;-85
2022/12/13 01:07:52;;;;;;;53.65;29.77;;;20.60;82.30;;;;;;1818228;78;21140;-85
2022/12/13 01:10:23;;;;;;;43.42;27.67;;;20.60;82.30;;;;;;1844830;78;21234;-84
2022/12/13 01:12:54;;;;;;;44.10;28.77;;;20.60;82.20;;;;;;1846741;78;21814;-86
2022/12/13 01:15:24;;;;;;;43.98;29.87;;;20.70;81.80;;;;;;1836602;76;21194;-86
2022/12/13 01:17:55;;;;;;;41.48;29.07;;;20.80;81.70;;;;;;1839390;76;21182;-85
2022/12/13 01:20:26;;;;;;;37.48;28.75;;;20.90;81.50;;;;;;1845833;76;21171;-85
2022/12/13 01:22:57;;;;;;;44.67;30.77;;;20.90;80.80;;;;;;1841303;76;21212;-86
2022/12/13 01:25:27;;;;;;;41.28;28.87;;;20.90;80.80;;;;;;1851359;75;21135;-87
2022/12/13 01:27:58;;;;;;;46.30;29.07;;;21.00;80.60;;;;;;1884545;75;21150;-85
2022/12/13 01:30:29;;;;;;;39.70;28.70;;;21.00;80.80;;;;;;1881321;75;21253;-85
2022/12/13 01:33:00;;;;;;;40.78;27.20;;;21.00;80.10;;;;;;1880485;75;21142;-86
2022/12/13 01:35:35;;;;;;;36.93;27.90;;;21.10;79.90;;;;;;1889068;75;21190;-85
2022/12/13 01:38:06;;;;;;;41.05;28.67;;;21.10;79.40;;;;;;1886182;75;21560;-86
2022/12/13 01:40:50;;;;;;;45.75;30.23;;;21.10;78.90;;;;;;1882901;76;21197;-86
2022/12/13 01:43:22;;;;;;;36.98;28.27;;;21.20;78.50;;;;;;1883959;75;21877;-87
2022/12/13 01:45:53;;;;;;;33.35;26.17;;;21.30;78.20;;;;;;1878756;76;21182;-87
2022/12/13 01:48:26;;;;;;;35.40;25.00;;;21.30;77.20;;;;;;1858824;76;21099;-87
2022/12/13 01:50:59;;;;;;;41.45;25.90;;;21.40;76.20;;;;;;1886380;75;21183;-86
2022/12/13 01:53:40;;;;;;;39.88;26.35;;;21.40;76.00;;;;;;1886537;75;21865;-70
2022/12/13 01:56:12;;;;;;;;;;;21.40;76.00;;;;;;1886615;75;21158;-71
2022/12/13 01:58:48;;;;;;;39.33;26.75;;;21.40;76.90;;;;;;1876934;76;20171;-72
2022/12/13 02:01:20;;;;;;;37.30;25.77;;;21.50;75.50;;;;;;1883048;76;21307;-71
2022/12/13 02:03:57;;;;;;;37.05;25.75;;;21.50;75.60;;;;;;1838756;76;21192;-71
2022/12/13 02:06:38;;;;;;;35.70;25.30;;;21.50;75.80;;;;;;1887153;74;21201;-71
2022/12/13 02:09:10;;;;;;;33.83;25.70;;;21.60;75.10;;;;;;1882005;74;21057;-71
2022/12/13 02:11:52;;;;;;;36.77;25.45;;;21.60;75.30;;;;;;1883344;74;21183;-71
2022/12/13 02:14:17;;;;;;;75.00;29.40;;;21.60;74.60;;;;;;1883001;76;21698;-71
2022/12/13 02:17:09;;;;;;;34.78;26.57;;;21.60;74.60;;;;;;1879108;74;21127;-72
2022/12/13 02:20:02;;;;;;;39.75;25.12;;;21.60;75.00;;;;;;1884807;74;21100;-72
2022/12/13 02:23:09;;;;;;;35.03;26.33;;;21.70;74.50;;;;;;1884528;74;21637;-71
2022/12/13 02:25:51;;;;;;;33.88;24.67;;;21.70;74.30;;;;;;1879208;75;21215;-70
2022/12/13 02:28:30;;;;;;;32.80;23.95;;;21.80;74.90;;;;;;1885063;75;21095;-72
2022/12/13 02:31:19;;;;;;;33.80;25.45;;;21.90;73.90;;;;;;1881883;74;21167;-71
2022/12/13 02:33:59;;;;;;;35.83;24.98;;;21.90;73.70;;;;;;1886717;75;21632;-70
2022/12/13 02:37:05;;;;;;;37.10;24.27;;;22.00;73.70;;;;;;1882465;75;21176;-72
2022/12/13 02:39:40;;;;;;;34.05;23.98;;;22.00;73.50;;;;;;1880639;74;21189;-72
2022/12/13 02:42:17;;;;;;;34.35;24.82;;;22.10;72.80;;;;;;1880578;74;21140;-73
2022/12/13 02:44:52;;;;;;;32.30;24.67;;;22.20;72.10;;;;;;1877379;74;21179;-74
2022/12/13 02:47:28;;;;;;;33.78;24.67;;;22.20;71.70;;;;;;1883826;74;21743;-69
2022/12/13 02:50:02;;;;;;;35.65;25.45;;;22.20;72.50;;;;;;1879300;74;21238;-74
2022/12/13 02:52:34;;;;;;;34.65;24.10;;;22.30;72.10;;;;;;1881931;74;21197;-74
2022/12/13 02:55:10;;;;;;;36.63;26.00;;;22.30;71.80;;;;;;1884893;74;21141;-74
2022/12/13 02:57:44;;;;;;;36.98;25.35;;;22.30;71.60;;;;;;1882591;74;21080;-72
2022/12/13 03:00:27;;;;;;;32.28;23.85;;;22.30;71.70;;;;;;1878091;74;21755;-73
2022/12/13 03:03:03;;;;;;;32.42;23.90;;;22.40;71.60;;;;;;1880840;74;21196;-71
2022/12/13 03:08:37;;;;;;;31.07;21.62;;;22.50;70.10;;;;;;1878241;74;21210;-72
2022/12/13 03:11:13;;;;;;;35.40;24.15;;;22.60;68.30;;;;;;1879417;74;21229;-71
2022/12/13 03:14:06;;;;;;;28.92;21.60;;;22.60;68.80;;;;;;1883185;74;21217;-74
2022/12/13 03:16:38;;;;;;;37.88;22.85;;;22.70;68.00;;;;;;1884726;74;21600;-71
2022/12/13 03:19:12;;;;;;;31.48;22.27;;;22.80;67.50;;;;;;1883113;74;21631;-70
2022/12/13 03:21:48;;;;;;;30.88;22.07;;;22.80;67.30;;;;;;1861431;76;21201;-72
2022/12/13 03:24:30;;;;;;;34.27;25.52;;;22.90;66.90;;;;;;1881681;74;21222;-71
2022/12/13 03:27:08;;;;;;;30.85;23.07;;;22.90;66.80;;;;;;1885051;74;21232;-72
2022/12/13 03:29:39;;;;;;;33.10;23.40;;;23.00;67.40;;;;;;1890043;74;21202;-72
2022/12/13 03:32:09;;;;;;;33.20;22.82;;;23.10;66.50;;;;;;1880016;74;21255;-72
2022/12/13 03:34:40;;;;;;;29.25;23.67;;;23.10;66.20;;;;;;1882660;74;21143;-71
2022/12/13 03:37:13;;;;;;;38.45;27.77;;;23.20;66.20;;;;;;1843214;76;21139;-71
2022/12/13 03:39:44;;;;;;;31.20;22.85;;;23.30;66.70;;;;;;1883413;74;21166;-73
2022/12/13 03:42:16;;;;;;;30.15;22.25;;;23.40;65.30;;;;;;1873871;75;21202;-71
2022/12/13 03:44:47;;;;;;;34.20;25.92;;;23.40;65.20;;;;;;1884360;74;21163;-72
2022/12/13 03:47:17;;;;;;;33.95;23.22;;;23.50;65.30;;;;;;1883075;75;21083;-72
2022/12/13 03:49:48;;;;;;;30.35;22.42;;;23.60;64.90;;;;;;1878190;74;21253;-72
2022/12/13 03:52:20;;;;;;;32.13;22.22;;;23.70;65.30;;;;;;1877000;74;21091;-72
2022/12/13 03:54:52;;;;;;;31.62;22.15;;;23.80;64.80;;;;;;1879337;74;22910;-72
2022/12/13 03:57:23;;;;;;;31.85;21.85;;;23.90;64.80;;;;;;1879266;74;21192;-72
2022/12/13 03:59:54;;;;;;;33.13;22.60;;;23.90;64.20;;;;;;1873596;74;21158;-71
2022/12/13 04:02:25;;;;;;;33.45;23.27;;;24.00;63.80;;;;;;1878288;74;21683;-72
2022/12/13 04:04:57;;;;;;;29.05;22.15;;;24.10;64.30;;;;;;1879324;75;21969;-72
2022/12/13 04:07:30;;;;;;;30.10;22.30;;;24.20;63.20;;;;;;1875528;74;21175;-72
2022/12/13 04:10:04;;;;;;;31.33;22.50;;;24.30;62.80;;;;;;1884359;74;21209;-72
2022/12/13 04:15:26;;;;;;;30.95;21.87;;;24.40;62.50;;;;;;1880340;74;21262;-72
2022/12/13 04:17:56;;;;;;;27.40;21.27;;;24.60;62.20;;;;;;1879564;74;21136;-73
2022/12/13 04:20:28;;;;;;;26.82;21.10;;;24.70;61.30;;;;;;1881962;74;21702;-73
2022/12/13 04:22:59;;;;;;;27.82;20.65;;;24.80;60.20;;;;;;1880704;74;21128;-74
2022/12/13 04:25:31;;;;;;;31.17;22.25;;;24.80;61.20;;;;;;1875867;74;21583;-75
2022/12/13 04:28:02;;;;;;;29.00;22.40;;;24.90;60.40;;;;;;1854406;75;21215;-73
2022/12/13 04:30:35;;;;;;;29.37;21.93;;;25.00;60.10;;;;;;1853156;76;21132;-70
2022/12/13 04:33:06;;;;;;;26.55;20.30;;;25.10;59.80;;;;;;1851595;76;21127;-72
2022/12/13 04:35:37;;;;;;;32.30;21.93;;;25.10;59.70;;;;;;1857680;76;21167;-73
2022/12/13 04:38:08;;;;;;;25.85;21.02;;;25.20;59.20;;;;;;1855410;76;21253;-70
2022/12/13 04:40:39;;;;;;;31.80;21.52;;;25.30;59.30;;;;;;1865876;76;21631;-72
2022/12/13 04:43:10;;;;;;;31.95;20.65;;;25.30;59.10;;;;;;1862742;76;21159;-70
2022/12/13 04:45:41;;;;;;;29.05;20.15;;;25.40;59.00;;;;;;1850398;76;21127;-72
2022/12/13 04:48:12;;;;;;;27.32;20.43;;;25.40;59.00;;;;;;1848664;76;21195;-72
2022/12/13 04:50:44;;;;;;;28.65;20.37;;;25.50;59.40;;;;;;1857062;76;21216;-73
2022/12/13 04:53:16;;;;;;;29.55;22.13;;;25.50;59.60;;;;;;1856178;76;21191;-72
2022/12/13 04:55:51;;;;;;;;;;;25.60;58.90;;;;;;1859290;76;21710;-73
2022/12/13 04:58:25;;;;;;;31.57;21.52;;;25.70;59.10;;;;;;1855161;76;20216;-73
2022/12/13 05:00:57;;;;;;;26.82;19.80;;;25.80;58.60;;;;;;1857892;76;21147;-74
2022/12/13 05:03:29;;;;;;;28.05;20.32;;;25.90;58.10;;;;;;1851313;76;21171;-72
2022/12/13 05:06:00;;;;;;;28.92;20.40;;;26.00;57.70;;;;;;1856722;76;21196;-71
2022/12/13 05:08:30;;;;;;;31.85;20.77;;;26.00;56.90;;;;;;1852741;76;21176;-72
2022/12/13 05:11:04;;;;;;;26.60;19.55;;;26.00;57.30;;;;;;1854577;76;21265;-71
2022/12/13 05:13:36;;;;;;;31.07;19.55;;;26.10;56.70;;;;;;1857199;76;21183;-71
2022/12/13 05:16:08;;;;;;;28.55;20.97;;;26.10;57.00;;;;;;1857361;76;21122;-72
2022/12/13 05:18:39;;;;;;;25.70;20.95;;;26.20;57.70;;;;;;1858740;76;21143;-73
2022/12/13 05:21:11;;;;;;;24.80;19.25;;;26.20;57.00;;;;;;1854906;76;21156;-72
2022/12/13 05:23:44;;;;;;;29.27;20.15;;;26.30;56.90;;;;;;1855980;76;21242;-71
2022/12/13 05:26:15;;;;;;;26.57;20.05;;;26.40;56.40;;;;;;1853538;76;21158;-72
2022/12/13 05:28:46;;;;;;;27.95;20.35;;;26.50;56.30;;;;;;1860900;76;21186;-72
2022/12/13 05:31:18;;;;;;;29.25;19.67;;;26.40;56.90;;;;;;1854757;76;21742;-72
2022/12/13 05:33:50;;;;;;;26.60;19.70;;;26.50;56.80;;;;;;1851152;76;21179;-70
2022/12/13 05:36:24;;;;;;;29.32;20.25;;;26.50;55.80;;;;;;1857474;76;21256;-73
2022/12/13 05:38:56;;;;;;;26.42;19.87;;;26.60;56.10;;;;;;1859349;76;21174;-72
2022/12/13 05:41:29;;;;;;;27.55;19.87;;;26.60;55.90;;;;;;1854829;76;21103;-74
2022/12/13 05:44:01;;;;;;;27.52;19.32;;;26.60;56.20;;;;;;1853111;76;21843;-72
2022/12/13 05:46:32;;;;;;;27.82;19.55;;;26.60;55.00;;;;;;1852666;76;21217;-72
2022/12/13 05:49:04;;;;;;;24.45;19.57;;;26.50;55.20;;;;;;1856480;76;21171;-70
2022/12/13 05:51:35;;;;;;;26.00;18.85;;;26.50;56.10;;;;;;1855697;76;21174;-72
2022/12/13 05:54:06;;;;;;;25.65;19.27;;;26.50;55.90;;;;;;1855217;76;21863;-73
2022/12/13 05:56:38;;;;;;;23.05;19.52;;;26.60;56.40;;;;;;1857091;76;21671;-73
2022/12/13 05:59:08;;;;;;;26.77;19.55;;;26.60;55.70;;;;;;1852164;76;21156;-74
2022/12/13 06:01:39;;;;;;;29.15;18.92;;;26.70;56.30;;;;;;1850360;76;21225;-73
2022/12/13 06:04:13;;;;;;;27.95;20.70;;;26.60;55.40;;;;;;1847338;76;21611;-74
2022/12/13 06:06:45;;;;;;;23.87;19.80;;;26.60;55.40;;;;;;1850594;76;21148;-73
2022/12/13 06:09:17;;;;;;;28.15;19.42;;;26.60;55.90;;;;;;1853204;76;21149;-72
2022/12/13 06:11:50;;;;;;;29.42;20.12;;;26.60;55.80;;;;;;1856492;76;21175;-72
2022/12/13 06:14:22;;;;;;;27.20;19.65;;;26.70;55.60;;;;;;1829207;76;21173;-73
2022/12/13 06:16:53;;;;;;;27.60;19.87;;;26.80;55.70;;;;;;1850316;76;21666;-72
2022/12/13 06:19:28;;;;;;;;;;;26.80;55.20;;;;;;1859995;76;21096;-73
2022/12/13 06:22:01;;;;;;;26.23;19.32;;;26.80;55.50;;;;;;1855594;76;20187;-73
2022/12/13 06:24:32;;;;;;;25.00;19.70;;;26.80;55.90;;;;;;1859818;76;21584;-72
2022/12/13 06:27:04;;;;;;;25.08;19.27;;;26.80;55.60;;;;;;1857703;76;21175;-72
2022/12/13 06:29:39;;;;;;;26.77;20.27;;;26.90;55.70;;;;;;1851091;76;21104;-72
2022/12/13 06:32:13;;;;;;;27.75;19.55;;;26.90;55.90;;;;;;1845034;76;21164;-73
2022/12/13 06:34:44;;;;;;;25.82;19.12;;;26.90;56.50;;;;;;1846781;76;21149;-72
2022/12/13 06:37:18;;;;;;;26.70;19.30;;;27.00;54.90;;;;;;1848051;76;21138;-72
2022/12/13 06:39:48;;;;;;;28.83;19.02;;;27.00;54.80;;;;;;1849950;76;21184;-74
2022/12/13 06:42:20;;;;;;;25.17;19.65;;;27.00;55.20;;;;;;1853643;76;21116;-72
2022/12/13 06:44:52;;;;;;;28.30;19.42;;;27.00;55.30;;;;;;1838019;76;21223;-72
2022/12/13 06:47:25;;;;;;;25.72;19.62;;;27.00;55.20;;;;;;1845891;76;21149;-72
2022/12/13 06:50:01;;;;;;;24.07;20.15;;;27.10;56.00;;;;;;1849336;76;21682;-73
2022/12/13 06:52:30;;;;;;;26.90;18.57;;;27.10;55.50;;;;;;1844921;76;21101;-72
2022/12/13 06:55:05;;;;;;;26.57;19.42;;;27.10;55.00;;;;;;1797238;78;21719;-73
2022/12/13 06:57:35;;;;;;;25.25;19.12;;;27.10;55.30;;;;;;1797046;78;21341;-72
2022/12/13 07:00:09;;;;;;;24.55;19.20;;;27.10;54.20;;;;;;1854158;76;21119;-73
2022/12/13 07:02:39;;;;;;;25.48;18.48;;;27.10;55.30;;;;;;1845438;76;21165;-72
2022/12/13 07:05:11;;;;;;;23.75;18.65;;;27.10;55.10;;;;;;1849262;76;21156;-72
2022/12/13 07:07:41;;;;;;;24.92;19.00;;;27.10;54.00;;;;;;1841961;76;21170;-73
2022/12/13 07:10:12;;;;;;;23.77;18.52;;;27.00;54.80;;;;;;1847560;76;21184;-72
2022/12/13 07:12:45;;;;;;;26.20;18.98;;;27.00;55.50;;;;;;1801987;78;21164;-72
2022/12/13 07:15:17;;;;;;;24.07;19.00;;;26.90;55.00;;;;;;1850875;76;21669;-73
2022/12/13 07:17:51;;;;;;;24.32;18.67;;;26.90;55.00;;;;;;1848260;76;21105;-73
2022/12/13 07:20:22;;;;;;;25.20;19.02;;;26.90;55.30;;;;;;1849966;76;21128;-73
2022/12/13 07:22:55;;;;;;;31.50;19.17;;;26.90;54.90;;;;;;1849982;76;21132;-73
2022/12/13 07:25:29;;;;;;;25.77;19.65;;;26.90;55.20;;;;;;1842020;76;21632;-72
2022/12/13 07:28:06;;;;;;;22.22;18.95;;;26.90;55.30;;;;;;1850941;76;21237;-71
2022/12/13 07:30:39;;;;;;;28.87;21.17;;;27.00;55.60;;;;;;1850661;76;21136;-71
2022/12/13 07:33:10;;;;;;;24.63;18.62;;;26.90;56.30;;;;;;1845356;76;21140;-71
2022/12/13 07:35:43;;;;;;;23.83;19.42;;;27.00;55.30;;;;;;1846311;76;21209;-73
2022/12/13 07:38:15;;;;;;;29.82;19.62;;;27.00;55.70;;;;;;1846084;76;21786;-72
2022/12/13 07:40:50;;;;;;;26.93;19.17;;;27.00;54.80;;;;;;1842984;76;21167;-72
2022/12/13 07:43:26;;;;;;;23.42;18.02;;;26.90;54.70;;;;;;1851461;76;21619;-72
2022/12/13 07:46:00;;;;;;;21.50;17.23;;;26.90;54.40;;;;;;1847235;76;21077;-72
2022/12/13 07:48:32;;;;;;;24.37;17.50;;;26.90;55.40;;;;;;1843667;76;21129;-72
2022/12/13 07:51:06;;;;;;;23.27;17.48;;;26.90;54.10;;;;;;1844125;76;21643;-72
2022/12/13 07:53:36;;;;;;;26.62;18.55;;;26.90;54.30;;;;;;1850032;76;21180;-73
2022/12/13 07:56:12;;;;;;;27.67;18.67;;;26.80;54.50;;;;;;1868150;75;21152;-72
2022/12/13 07:58:50;;;;;;;22.87;17.80;;;26.80;55.20;;;;;;1815559;76;21195;-73
2022/12/13 08:01:24;;;;;;;24.47;17.32;;;26.80;54.90;;;;;;1816058;77;21177;-72
2022/12/13 08:03:55;;;;;;;25.48;17.62;;;26.80;54.60;;;;;;1782616;78;21222;-73
2022/12/13 08:06:30;;;;;;;21.17;17.60;;;26.80;54.50;;;;;;1871665;75;21725;-72
2022/12/13 08:09:02;;;;;;;21.45;16.17;;;26.80;54.20;;;;;;1872167;75;21169;-73
2022/12/13 08:11:35;;;;;;;21.55;16.05;;;26.80;54.30;;;;;;1879687;74;21199;-72
2022/12/13 08:14:11;;;;;;;21.55;16.25;;;26.80;54.10;;;;;;1861047;74;21197;-72
2022/12/13 08:16:43;;;;;;;26.57;17.80;;;26.80;54.30;;;;;;1876511;74;21163;-70
2022/12/13 08:19:18;;;;;;;23.57;18.48;;;26.80;53.80;;;;;;1880876;74;21235;-72
2022/12/13 08:21:56;;;;;;;24.52;18.92;;;26.80;54.10;;;;;;1876866;75;21230;-72
2022/12/13 08:24:29;;;;;;;;;;;26.80;54.70;;;;;;1878117;75;21185;-71
2022/12/13 08:27:01;;;;;;;24.95;19.32;;;26.70;54.50;;;;;;1880504;74;20367;-72
2022/12/13 08:29:35;;;;;;;23.73;18.42;;;26.70;54.90;;;;;;1875307;74;21158;-73
2022/12/13 08:32:09;;;;;;;22.07;16.95;;;26.70;55.10;;;;;;1863999;75;21092;-72
2022/12/13 08:34:41;;;;;;;21.57;18.17;;;26.80;55.00;;;;;;1863268;75;21162;-72
2022/12/13 08:37:14;;;;;;;23.15;16.85;;;26.70;54.50;;;;;;1861306;76;22113;-74
2022/12/13 08:39:45;;;;;;;24.50;16.25;;;26.70;54.40;;;;;;1862127;75;21140;-74
2022/12/13 08:42:18;;;;;;;19.57;16.50;;;26.70;54.20;;;;;;1861686;75;21183;-72
2022/12/13 08:44:53;;;;;;;20.50;16.10;;;26.60;54.40;;;;;;1859796;75;21194;-72
2022/12/13 08:47:27;;;;;;;22.37;16.82;;;26.60;54.50;;;;;;1860744;75;21472;-74
2022/12/13 08:50:00;;;;;;;22.93;17.52;;;26.60;54.60;;;;;;1799048;77;21262;-73
2022/12/13 08:52:34;;;;;;;24.37;17.42;;;26.60;54.30;;;;;;1811678;77;21165;-72
2022/12/13 08:55:07;;;;;;;22.15;16.67;;;26.60;54.30;;;;;;1858656;76;21664;-72
2022/12/13 08:57:38;;;;;;;22.85;17.15;;;26.60;54.80;;;;;;1862641;75;21136;-71
2022/12/13 09:00:12;;;;;;;23.18;17.23;;;26.60;54.80;;;;;;1860860;75;21147;-73
2022/12/13 09:02:59;;;;;;;21.68;16.25;;;26.60;54.60;;;;;;1863031;74;21232;-73
2022/12/13 09:05:17;;;;;;;25.08;17.42;;;26.70;55.10;;;;;;1856509;76;21634;-70
2022/12/13 09:07:52;;;;;;;23.75;16.93;;;26.60;54.80;;;;;;1857284;76;21402;-74
2022/12/13 09:10:35;;;;;;;;;;;;;;;;;;;;;
2022/12/13 09:13:15;;;;;;;23.85;17.45;;;26.60;55.00;;;;;;1865569;75;21220;-73
2022/12/13 09:15:50;;;;;;;24.72;16.95;;;26.50;55.10;;;;;;1862030;75;21217;-73
2022/12/13 09:18:30;;;;;;;25.10;17.57;;;26.50;55.00;;;;;;1856309;75;21194;-73
2022/12/13 09:21:11;;;;;;;23.70;17.52;;;26.50;56.10;;;;;;1858615;75;21586;-73
2022/12/13 09:23:44;;;;;;;22.58;18.07;;;26.50;54.80;;;;;;1855119;76;21095;-72
2022/12/13 09:26:18;;;;;;;25.82;18.70;;;26.50;55.30;;;;;;1861742;75;21155;-73
2022/12/13 09:28:50;;;;;;;25.75;18.87;;;26.40;55.50;;;;;;1859333;76;21643;-72
2022/12/13 09:31:22;;;;;;;23.10;19.00;;;26.40;55.40;;;;;;1849383;76;21237;-70
2022/12/13 09:33:58;;;;;;;22.77;18.60;;;26.30;55.60;;;;;;1849863;76;21193;-72
2022/12/13 09:36:29;;;;;;;27.58;20.15;;;26.40;55.80;;;;;;1830221;76;21068;-72
2022/12/13 09:39:00;;;;;;;28.70;20.50;;;26.30;55.90;;;;;;1851916;76;21783;-73
2022/12/13 09:41:39;;;;;;;26.25;20.00;;;26.30;55.80;;;;;;1850770;76;21148;-73
2022/12/13 09:44:41;;;;;;;26.80;19.57;;;26.30;56.00;;;;;;1847843;76;21115;-72
2022/12/13 09:47:39;;;;;;;27.50;19.20;;;26.30;56.10;;;;;;1834666;76;21329;-72
2022/12/13 09:50:29;;;;;;;27.17;19.17;;;26.20;56.20;;;;;;1835698;76;21105;-70
2022/12/13 09:53:03;;;;;;;28.02;20.08;;;26.20;56.20;;;;;;1837476;76;21205;-73
2022/12/13 09:55:38;;;;;;;26.07;19.37;;;26.20;56.10;;;;;;1835918;75;21146;-72
2022/12/13 09:58:13;;;;;;;26.05;19.85;;;26.10;55.90;;;;;;1827906;76;21143;-72
2022/12/13 10:00:47;;;;;;;28.23;19.30;;;26.10;56.00;;;;;;1831651;75;21150;-72
2022/12/13 10:03:21;;;;;;;21.20;18.25;;;26.00;55.80;;;;;;1825400;76;21205;-73
2022/12/13 10:06:05;;;;;;;25.20;18.32;;;26.00;55.70;;;;;;1831563;75;21250;-72
2022/12/13 10:08:38;;;;;;;28.52;18.82;;;26.00;56.30;;;;;;1826815;76;21777;-74
2022/12/13 10:11:17;;;;;;;26.43;18.70;;;25.90;55.90;;;;;;1829438;76;21633;-74
2022/12/13 10:14:03;;;;;;;26.97;18.70;;;25.90;56.30;;;;;;1828155;76;21458;-73
2022/12/13 10:16:39;;;;;;;30.48;18.15;;;25.90;56.40;;;;;;1824494;76;21141;-71
2022/12/13 10:19:10;;;;;;;;;;;25.90;56.60;;;;;;1828847;76;21111;-71
2022/12/13 10:21:44;;;;;;;25.08;18.52;;;25.80;57.60;;;;;;1811487;77;20856;-73
2022/12/13 10:24:17;;;;;;;26.05;18.60;;;25.80;56.90;;;;;;1826142;76;21242;-73
2022/12/13 10:26:50;;;;;;;26.97;19.10;;;25.80;57.30;;;;;;1794241;78;21661;-74
2022/12/13 10:29:21;;;;;;;28.90;20.95;;;25.80;56.90;;;;;;1775300;79;21179;-73
2022/12/13 10:31:53;;;;;;;25.92;21.55;;;25.70;56.60;;;;;;1821354;76;21118;-75
2022/12/13 10:34:31;;;;;;;30.70;20.30;;;25.70;57.00;;;;;;1822937;76;21162;-74
2022/12/13 10:37:32;;;;;;;30.00;19.73;;;25.60;56.90;;;;;;1825583;76;21129;-74
2022/12/13 10:40:07;;;;;;;30.95;19.87;;;25.60;57.20;;;;;;1824823;76;21249;-73
2022/12/13 10:42:36;;;;;;;28.35;21.23;;;25.60;57.50;;;;;;1821974;77;21633;-75
2022/12/13 10:45:10;;;;;;;29.67;22.52;;;25.50;57.60;;;;;;1817015;76;21126;-73
2022/12/13 10:47:44;;;;;;;33.98;23.62;;;25.50;57.90;;;;;;1832121;76;21264;-75
2022/12/13 10:50:27;;;;;;;29.80;23.02;;;25.40;57.90;;;;;;1814471;77;21677;-74
2022/12/13 10:53:00;;;;;;;34.58;22.93;;;25.40;58.10;;;;;;1812406;77;21179;-73
2022/12/13 10:55:34;;;;;;;35.40;22.98;;;25.40;58.30;;;;;;1851255;76;21081;-74
2022/12/13 10:58:08;;;;;;;35.20;23.73;;;25.30;58.40;;;;;;1861497;76;22561;-71
2022/12/13 11:00:48;;;;;;;31.85;22.73;;;25.30;58.40;;;;;;1850664;76;21822;-72
2022/12/13 11:03:31;;;;;;;30.37;22.07;;;25.30;58.70;;;;;;1854650;76;21213;-72
2022/12/13 11:06:16;;;;;;;31.27;21.90;;;25.30;58.90;;;;;;1847939;76;21226;-73
2022/12/13 11:08:47;;;;;;;29.30;22.00;;;25.20;59.00;;;;;;1849809;76;21160;-73
2022/12/13 11:11:20;;;;;;;29.95;21.73;;;25.20;59.20;;;;;;1852578;76;21696;-73
2022/12/13 11:13:54;;;;;;;30.48;22.45;;;25.20;59.40;;;;;;1850534;76;21247;-72
2022/12/13 11:16:34;;;;;;;29.42;20.72;;;25.10;59.60;;;;;;1849218;76;21084;-73
2022/12/13 11:19:09;;;;;;;28.47;20.43;;;25.10;59.80;;;;;;1852452;76;21135;-73
2022/12/13 11:21:42;;;;;;;27.65;20.68;;;25.10;60.00;;;;;;1850779;76;21326;-73
2022/12/13 11:24:20;;;;;;;34.83;21.60;;;25.00;60.00;;;;;;1853700;76;21212;-72
2022/12/13 11:29:52;;;;;;;31.93;21.77;;;25.00;60.30;;;;;;1888220;74;20221;-73
2022/12/13 11:32:56;;;;;;;30.77;22.48;;;25.00;60.50;;;;;;1888819;74;21131;-73
2022/12/13 11:36:02;;;;;;;32.08;22.90;;;25.00;60.70;;;;;;1886532;74;21166;-72
2022/12/13 11:38:53;;;;;;;31.60;23.10;;;24.90;60.90;;;;;;1875719;74;21688;-72
2022/12/13 11:41:32;;;;;;;32.45;24.07;;;24.90;61.00;;;;;;1892411;74;21140;-72
2022/12/13 11:44:16;;;;;;;40.45;24.12;;;24.90;61.30;;;;;;1888745;74;21237;-72
2022/12/13 11:46:49;;;;;;;36.08;24.57;;;24.80;61.60;;;;;;1889690;74;21152;-73
2022/12/13 11:49:22;;;;;;;35.78;24.23;;;24.80;61.70;;;;;;1877759;74;21116;-73
2022/12/13 11:52:16;;;;;;;32.78;25.10;;;24.80;62.00;;;;;;1873221;75;21175;-71
2022/12/13 11:54:56;;;;;;;34.25;24.77;;;24.80;62.30;;;;;;1887773;74;21995;-72
2022/12/13 11:58:08;;;;;;;36.55;25.88;;;24.80;62.60;;;;;;1891272;74;21080;-74
2022/12/13 12:00:42;;;;;;;42.38;25.75;;;24.80;62.80;;;;;;1899735;74;21680;-74
2022/12/13 12:03:20;;;;;;;34.63;26.52;;;24.80;63.10;;;;;;1892187;74;21147;-74
2022/12/13 12:06:00;;;;;;;36.93;26.70;;;24.70;63.30;;;;;;1891472;74;21136;-73
2022/12/13 12:08:37;;;;;;;36.88;26.70;;;24.70;63.50;;;;;;1889993;73;21126;-73
2022/12/13 12:11:27;;;;;;;38.17;27.00;;;24.70;64.10;;;;;;1895769;74;21152;-73
2022/12/13 12:14:07;;;;;;;38.28;25.72;;;24.70;64.20;;;;;;1891789;74;21184;-72
2022/12/13 12:16:44;;;;;;;36.77;26.93;;;24.60;64.40;;;;;;1893948;74;21846;-72
2022/12/13 12:19:27;;;;;;;36.90;26.50;;;24.60;64.90;;;;;;1886386;74;21176;-73
2022/12/13 12:22:07;;;;;;;41.00;27.73;;;24.60;64.90;;;;;;1904620;74;21544;-72
2022/12/13 12:25:05;;;;;;;41.10;28.45;;;24.60;65.20;;;;;;1902292;74;21186;-72
2022/12/13 12:28:13;;;;;;;41.20;28.42;;;24.50;65.50;;;;;;1891066;74;21140;-72
2022/12/13 12:30:55;;;;;;;49.38;30.35;;;24.50;65.80;;;;;;1735019;81;21764;-73
2022/12/13 12:33:50;;;;;;;44.25;30.62;;;24.50;66.30;;;;;;1803104;77;21186;-72
2022/12/13 12:36:48;;;;;;;42.27;30.90;;;24.50;66.70;;;;;;1807278;77;21193;-71
2022/12/13 12:39:27;;;;;;;45.12;29.80;;;24.40;67.00;;;;;;1813363;77;21883;-72
2022/12/13 12:42:26;;;;;;;48.33;30.32;;;24.40;67.20;;;;;;1807618;77;21196;-71
2022/12/13 12:45:11;;;;;;;42.95;30.55;;;24.40;67.40;;;;;;1807610;77;21198;-73
2022/12/13 12:48:11;;;;;;;43.58;31.62;;;24.30;67.60;;;;;;1804046;77;21140;-73
2022/12/13 12:50:52;;;;;;;48.17;31.50;;;24.30;68.00;;;;;;1801148;78;21223;-73
2022/12/13 12:53:41;;;;;;;46.68;31.40;;;24.30;67.70;;;;;;1766058;79;21216;-72
2022/12/13 12:56:29;;;;;;;44.10;31.33;;;24.30;68.00;;;;;;1804601;77;21692;-72
2022/12/13 12:59:14;;;;;;;42.93;30.95;;;24.20;68.40;;;;;;1812112;77;21650;-73
2022/12/13 13:01:58;;;;;;;52.03;32.10;;;24.20;68.60;;;;;;1805083;77;21198;-73
2022/12/13 13:04:38;;;;;;;47.43;32.95;;;24.20;68.80;;;;;;1791707;77;21195;-72
2022/12/13 13:07:15;;;;;;;50.23;33.90;;;24.20;68.80;;;;;;1809037;77;21123;-72
2022/12/13 13:09:50;;;;;;;51.10;33.27;;;24.20;68.80;;;;;;1807754;77;21151;-73
2022/12/13 13:12:23;;;;;;;53.05;34.83;;;24.20;69.00;;;;;;1807284;78;21877;-73
2022/12/13 13:14:59;;;;;;;56.53;35.75;;;24.10;69.20;;;;;;1808221;77;21127;-72
2022/12/13 13:17:34;;;;;;;57.65;35.17;;;24.10;69.60;;;;;;1810023;77;21153;-73
2022/12/13 13:20:22;;;;;;;53.25;34.75;;;24.10;69.90;;;;;;1817199;77;21261;-72
2022/12/13 13:22:58;;;;;;;59.25;37.40;;;24.00;69.90;;;;;;1776835;79;21171;-72